createdAt,value
2017-08-15T09:27:43.715Z,9.10
2017-08-15T09:30:11.780Z,7.80
2017-08-15T09:32:41.298Z,7.77
2017-08-15T09:35:09.027Z,7.83
2017-08-15T09:40:21.301Z,5.90
2017-08-15T09:42:49.401Z,6.60
2017-08-15T09:45:17.963Z,6.43
2017-08-15T09:47:46.954Z,5.43
2017-08-15T09:50:19.276Z,6.23
2017-08-15T09:52:48.610Z,9.30
2017-08-15T09:55:18.415Z,7.37
2017-08-15T09:57:48.022Z,5.50
2017-08-15T10:00:22.619Z,5.63
2017-08-15T10:05:30.690Z,5.70
2017-08-15T10:07:58.711Z,7.33
2017-08-15T10:10:31.236Z,7.70
2017-08-15T10:12:58.975Z,6.27
2017-08-15T10:15:27.155Z,5.70
2017-08-15T10:17:55.580Z,7.77
2017-08-15T10:20:26.219Z,7.37
2017-08-15T10:22:54.356Z,7.63
2017-08-15T10:28:22.946Z,8.57
2017-08-15T10:30:56.714Z,9.43
2017-08-15T10:36:21.238Z,13.47
2017-08-15T10:38:56.819Z,13.60
2017-08-15T10:41:30.837Z,13.70
2017-08-15T10:44:02.968Z,7.90
2017-08-15T10:51:56.181Z,6.50
2017-08-15T10:54:26.372Z,8.60
2017-08-15T10:57:00.813Z,6.20
2017-08-15T10:59:42.906Z,7.60
2017-08-15T11:02:12.512Z,7.13
2017-08-15T11:04:50.540Z,6.87
2017-08-15T11:12:56.005Z,7.10
2017-08-15T11:27:25.214Z,6.20
2017-08-15T11:35:54.196Z,6.93
2017-08-15T11:44:15.508Z,6.60
2017-08-15T11:46:55.309Z,9.00
2017-08-15T11:52:50.555Z,7.17
2017-08-15T12:01:34.296Z,7.30
2017-08-15T12:04:02.953Z,6.63
2017-08-15T12:06:34.487Z,7.23
2017-08-15T12:09:03.045Z,8.10
2017-08-15T12:11:31.011Z,5.67
2017-08-15T12:16:40.210Z,5.30
2017-08-15T12:19:15.346Z,6.37
2017-08-15T12:21:44.013Z,6.07
2017-08-15T12:24:14.274Z,7.93
2017-08-15T12:26:51.399Z,7.70
2017-08-15T12:29:20.166Z,5.30
2017-08-15T12:31:48.803Z,9.47
2017-08-15T12:34:19.421Z,5.00
2017-08-15T12:36:51.882Z,7.90
2017-08-15T12:39:31.013Z,5.63
2017-08-15T12:44:36.445Z,5.73
2017-08-15T12:47:14.380Z,7.90
2017-08-15T12:49:44.791Z,7.00
2017-08-15T12:52:13.661Z,7.53
2017-08-15T12:54:43.527Z,5.90
2017-08-15T12:57:11.308Z,8.47
2017-08-15T12:59:40.242Z,7.10
2017-08-15T13:02:07.892Z,5.47
2017-08-15T13:04:36.314Z,4.37
2017-08-15T13:07:05.315Z,5.10
2017-08-15T13:09:33.259Z,7.83
2017-08-15T13:12:01.171Z,7.87
2017-08-15T13:14:37.724Z,6.37
2017-08-15T13:17:05.578Z,10.10
2017-08-15T13:19:33.771Z,7.77
2017-08-15T13:22:01.602Z,11.40
2017-08-15T13:24:30.231Z,4.73
2017-08-15T13:26:59.084Z,6.87
2017-08-15T13:29:29.230Z,5.70
2017-08-15T13:31:59.247Z,11.43
2017-08-15T13:34:27.121Z,9.60
2017-08-15T13:36:56.819Z,8.10
2017-08-15T13:39:34.105Z,7.60
2017-08-15T13:42:09.085Z,8.55
2017-08-15T13:44:41.299Z,8.20
2017-08-15T13:47:09.952Z,12.37
2017-08-15T13:49:39.893Z,5.80
2017-08-15T13:52:19.537Z,7.90
2017-08-15T13:54:48.421Z,5.00
2017-08-15T13:57:18.668Z,5.73
2017-08-15T13:59:48.680Z,6.13
2017-08-15T14:02:20.224Z,6.33
2017-08-15T14:04:56.491Z,11.83
2017-08-15T14:10:08.879Z,5.40
2017-08-15T14:12:51.054Z,7.20
2017-08-15T14:15:33.400Z,6.57
2017-08-15T14:18:03.609Z,3.57
2017-08-15T14:20:34.253Z,6.53
2017-08-15T14:23:07.863Z,6.33
2017-08-15T14:25:42.053Z,6.80
2017-08-15T14:28:11.868Z,9.80
2017-08-15T14:30:41.639Z,5.40
2017-08-15T14:33:11.985Z,5.73
2017-08-15T14:35:46.224Z,8.90
2017-08-15T14:38:20.128Z,9.30
2017-08-15T14:43:54.495Z,4.90
2017-08-15T14:46:26.254Z,6.47
2017-08-15T14:48:57.503Z,5.60
2017-08-15T14:51:37.124Z,8.27
2017-08-15T14:54:10.732Z,5.93
2017-08-15T14:56:39.958Z,5.53
2017-08-15T14:59:08.132Z,8.90
2017-08-15T15:01:48.373Z,8.07
2017-08-15T15:04:16.935Z,7.57
2017-08-15T15:06:53.349Z,8.47
2017-08-15T15:09:27.005Z,7.07
2017-08-15T15:11:54.781Z,5.47
2017-08-15T15:17:13.845Z,8.43
2017-08-15T15:19:41.319Z,6.33
2017-08-15T15:22:08.926Z,7.13
2017-08-15T15:24:36.501Z,6.17
2017-08-15T15:27:04.002Z,8.30
2017-08-15T15:29:31.475Z,10.43
2017-08-15T15:31:59.131Z,5.37
2017-08-15T15:34:27.963Z,5.90
2017-08-15T15:36:55.583Z,6.57
2017-08-15T15:39:25.272Z,7.63
2017-08-15T15:41:52.846Z,7.17
2017-08-15T15:44:20.616Z,11.83
2017-08-15T15:46:48.392Z,17.90
2017-08-15T15:49:15.926Z,14.37
2017-08-15T15:51:43.382Z,14.90
2017-08-15T15:54:10.896Z,8.93
2017-08-15T15:56:38.633Z,6.43
2017-08-15T15:59:06.880Z,9.88
2017-08-15T16:01:35.247Z,9.27
2017-08-15T16:04:02.836Z,7.43
2017-08-15T16:06:30.471Z,9.00
2017-08-15T16:08:57.959Z,12.20
2017-08-15T16:11:26.225Z,12.40
2017-08-15T16:13:53.729Z,7.30
2017-08-15T16:16:21.248Z,8.03
2017-08-15T16:18:49.960Z,11.13
2017-08-15T16:21:17.433Z,7.60
2017-08-15T16:23:45.047Z,9.50
2017-08-15T16:26:12.617Z,7.20
2017-08-15T16:28:41.451Z,8.10
2017-08-15T16:31:09.107Z,11.43
2017-08-15T16:33:36.607Z,9.87
2017-08-15T16:36:04.157Z,8.40
2017-08-15T16:38:31.913Z,7.37
2017-08-15T16:40:59.936Z,6.40
2017-08-15T16:43:27.374Z,7.83
2017-08-15T16:45:55.062Z,8.27
2017-08-15T16:48:22.559Z,14.53
2017-08-15T16:50:50.038Z,9.27
2017-08-15T16:53:17.504Z,10.60
2017-08-15T16:55:44.999Z,16.20
2017-08-15T16:58:13.070Z,18.37
2017-08-15T17:00:40.571Z,12.97
2017-08-15T17:03:08.179Z,11.07
2017-08-15T17:05:35.633Z,12.90
2017-08-15T17:08:03.416Z,20.10
2017-08-15T17:10:31.140Z,21.13
2017-08-15T17:12:59.518Z,17.50
2017-08-15T17:15:27.207Z,11.53
2017-08-15T17:17:54.767Z,10.83
2017-08-15T17:20:22.328Z,8.43
2017-08-15T17:22:49.839Z,9.37
2017-08-15T17:25:17.370Z,8.70
2017-08-15T17:27:44.859Z,9.63
2017-08-15T17:30:12.371Z,10.97
2017-08-15T17:32:39.879Z,13.97
2017-08-15T17:35:07.465Z,11.90
2017-08-15T17:37:35.987Z,13.20
2017-08-15T17:40:03.477Z,10.43
2017-08-15T17:42:31.054Z,12.53
2017-08-15T17:44:58.672Z,8.80
2017-08-15T17:47:26.258Z,8.17
2017-08-15T17:49:55.776Z,10.77
2017-08-15T17:52:23.567Z,12.60
2017-08-15T17:54:51.332Z,8.27
2017-08-15T17:57:19.248Z,10.70
2017-08-15T17:59:46.713Z,8.77
2017-08-15T18:02:14.292Z,8.97
2017-08-15T18:04:41.879Z,8.57
2017-08-15T18:07:10.158Z,9.10
2017-08-15T18:09:37.665Z,15.37
2017-08-15T18:12:05.456Z,14.83
2017-08-15T18:14:34.052Z,8.13
2017-08-15T18:17:01.581Z,11.50
2017-08-15T18:19:29.359Z,8.40
2017-08-15T18:21:57.213Z,12.33
2017-08-15T18:24:25.037Z,7.93
2017-08-15T18:26:52.624Z,9.40
2017-08-15T18:29:20.242Z,13.13
2017-08-15T18:31:47.794Z,12.00
2017-08-15T18:34:16.071Z,11.10
2017-08-15T18:36:43.633Z,10.90
2017-08-15T18:39:12.167Z,20.70
2017-08-15T18:41:39.725Z,18.33
2017-08-15T18:44:07.312Z,18.43
2017-08-15T18:46:34.742Z,11.93
2017-08-15T18:49:02.971Z,11.00
2017-08-15T18:51:31.022Z,11.47
2017-08-15T18:53:58.533Z,10.10
2017-08-15T18:56:27.544Z,9.67
2017-08-15T18:58:55.068Z,10.33
2017-08-15T19:01:23.415Z,10.50
2017-08-15T19:03:51.081Z,10.87
2017-08-15T19:06:19.098Z,11.50
2017-08-15T19:08:46.608Z,8.20
2017-08-15T19:11:15.221Z,9.33
2017-08-15T19:13:42.754Z,14.90
2017-08-15T19:16:10.887Z,10.13
2017-08-15T19:18:38.848Z,11.43
2017-08-15T19:21:06.419Z,11.60
2017-08-15T19:23:34.277Z,8.63
2017-08-15T19:26:02.188Z,10.40
2017-08-15T19:28:30.420Z,12.13
2017-08-15T19:30:58.664Z,12.87
2017-08-15T19:33:26.195Z,9.63
2017-08-15T19:35:53.832Z,11.67
2017-08-15T19:38:21.596Z,13.13
2017-08-15T19:40:50.220Z,14.87
2017-08-15T19:43:18.855Z,13.13
2017-08-15T19:45:46.615Z,10.40
2017-08-15T19:48:14.723Z,10.97
2017-08-15T19:50:42.507Z,12.83
2017-08-15T19:53:10.888Z,13.40
2017-08-15T19:55:39.531Z,13.93
2017-08-15T19:58:07.149Z,10.47
2017-08-15T20:00:34.831Z,14.30
2017-08-15T20:03:02.771Z,12.10
2017-08-15T20:05:30.315Z,14.60
2017-08-15T20:07:58.701Z,12.40
2017-08-15T20:10:26.217Z,16.53
2017-08-15T20:12:53.939Z,12.23
2017-08-15T20:15:21.845Z,12.97
2017-08-15T20:17:49.442Z,14.40
2017-08-15T20:20:17.686Z,13.10
2017-08-15T20:22:45.961Z,15.10
2017-08-15T20:25:13.577Z,15.63
2017-08-15T20:27:41.062Z,11.60
2017-08-15T20:30:08.592Z,12.33
2017-08-15T20:32:36.218Z,14.20
2017-08-15T20:35:03.705Z,10.60
2017-08-15T20:37:33.106Z,17.00
2017-08-15T20:40:01.743Z,21.40
2017-08-15T20:45:07.077Z,12.10
2017-08-15T20:47:34.584Z,12.90
2017-08-15T20:50:02.281Z,14.07
2017-08-15T20:52:29.880Z,13.23
2017-08-15T20:54:57.347Z,16.67
2017-08-15T20:57:24.931Z,13.50
2017-08-15T20:59:52.467Z,14.17
2017-08-15T21:02:19.975Z,17.13
2017-08-15T21:04:48.304Z,14.13
2017-08-15T21:07:16.294Z,17.63
2017-08-15T21:09:44.589Z,13.77
2017-08-15T21:12:12.050Z,15.77
2017-08-15T21:14:40.433Z,19.67
2017-08-15T21:17:08.936Z,14.20
2017-08-15T21:19:36.577Z,14.40
2017-08-15T21:22:05.105Z,14.57
2017-08-15T21:24:33.244Z,16.37
2017-08-15T21:27:00.734Z,14.43
2017-08-15T21:29:28.388Z,15.70
2017-08-15T21:31:55.902Z,16.80
2017-08-15T21:34:23.450Z,18.83
2017-08-15T21:36:51.896Z,20.20
2017-08-15T21:39:19.536Z,23.43
2017-08-15T21:41:47.014Z,20.60
2017-08-15T21:44:14.552Z,22.90
2017-08-15T21:46:42.028Z,21.93
2017-08-15T21:49:09.518Z,18.83
2017-08-15T21:51:37.350Z,20.70
2017-08-15T21:54:04.948Z,22.97
2017-08-15T21:56:32.654Z,23.87
2017-08-15T21:59:01.011Z,21.07
2017-08-15T22:01:35.127Z,18.27
2017-08-15T22:04:02.687Z,19.70
2017-08-15T22:06:30.974Z,19.27
2017-08-15T22:08:58.550Z,16.60
2017-08-15T22:11:26.123Z,18.27
2017-08-15T22:13:54.019Z,18.57
2017-08-15T22:16:21.508Z,17.53
2017-08-15T22:18:49.833Z,17.53
2017-08-15T22:21:17.316Z,18.90
2017-08-15T22:23:44.799Z,19.97
2017-08-15T22:26:13.079Z,20.87
2017-08-15T22:28:41.378Z,23.60
2017-08-15T22:31:09.688Z,22.67
2017-08-15T22:33:37.266Z,19.07
2017-08-15T22:36:04.778Z,18.47
2017-08-15T22:38:32.616Z,21.07
2017-08-15T22:41:00.199Z,18.83
2017-08-15T22:43:28.140Z,18.03
2017-08-15T22:45:56.210Z,18.37
2017-08-15T22:48:24.524Z,18.53
2017-08-15T22:50:52.150Z,19.87
2017-08-15T22:53:19.900Z,21.43
2017-08-15T22:55:47.472Z,16.10
2017-08-15T22:58:15.085Z,16.97
2017-08-15T23:00:42.613Z,16.63
2017-08-15T23:03:10.887Z,17.70
2017-08-15T23:05:38.858Z,16.97
2017-08-15T23:08:06.620Z,18.50
2017-08-15T23:10:35.823Z,16.77
2017-08-15T23:13:03.670Z,17.20
2017-08-15T23:15:31.393Z,16.20
2017-08-15T23:17:58.892Z,16.43
2017-08-15T23:20:27.137Z,16.10
2017-08-15T23:22:55.003Z,14.47
2017-08-15T23:25:22.566Z,14.33
2017-08-15T23:27:50.140Z,14.93
2017-08-15T23:30:17.715Z,14.40
2017-08-15T23:32:45.287Z,17.90
2017-08-15T23:35:13.734Z,17.63
2017-08-15T23:37:41.374Z,16.97
2017-08-15T23:40:08.962Z,14.30
2017-08-15T23:42:36.467Z,18.00
2017-08-15T23:45:04.032Z,19.40
2017-08-15T23:47:31.674Z,19.87
2017-08-15T23:49:59.239Z,24.27
2017-08-15T23:52:27.015Z,28.13
2017-08-15T23:54:55.076Z,21.20
2017-08-15T23:57:22.534Z,23.00
2017-08-15T23:59:50.094Z,24.40
